sensor_id;sensor_type;location;lat;lon;timestamp;pressure;altitude;pressure_sealevel;temperature;humidity
7075;BME280;3578;51.568;6.932;2023-03-12T00:01:18;49782.75;;;-144.14;100.00
7075;BME280;3578;51.568;6.932;2023-03-12T00:03:47;49770.75;;;-144.14;100.00
7075;BME280;3578;51.568;6.932;2023-03-12T00:06:14;49774.75;;;-144.14;100.00
7075;BME280;3578;51.568;6.932;2023-03-12T00:08:42;49804.78;;;-144.14;100.00
7075;BME280;3578;51.568;6.932;2023-03-12T00:11:11;49774.75;;;-144.14;100.00
7075;BME280;3578;51.568;6.932;2023-03-12T00:13:39;49732.72;;;-144.14;100.00
7075;BME280;3578;51.568;6.932;2023-03-12T00:16:07;49754.72;;;-144.14;100.00
7075;BME280;3578;51.568;6.932;2023-03-12T00:18:35;49722.69;;;-144.14;100.00
7075;BME280;3578;51.568;6.932;2023-03-12T00:21:05;49704.69;;;-144.14;100.00
7075;BME280;3578;51.568;6.932;2023-03-12T00:23:33;49648.63;;;-144.14;100.00
7075;BME280;3578;51.568;6.932;2023-03-12T00:26:01;49604.59;;;-144.14;100.00
7075;BME280;3578;51.568;6.932;2023-03-12T00:28:28;49584.56;;;-144.14;100.00
7075;BME280;3578;51.568;6.932;2023-03-12T00:30:56;49598.59;;;-144.14;100.00
7075;BME280;3578;51.568;6.932;2023-03-12T00:33:24;49640.63;;;-144.14;100.00
7075;BME280;3578;51.568;6.932;2023-03-12T00:35:51;49602.59;;;-144.14;100.00
7075;BME280;3578;51.568;6.932;2023-03-12T00:38:21;49656.63;;;-144.14;100.00
7075;BME280;3578;51.568;6.932;2023-03-12T00:40:48;49708.69;;;-144.14;100.00
7075;BME280;3578;51.568;6.932;2023-03-12T00:43:15;49728.72;;;-144.14;100.00
7075;BME280;3578;51.568;6.932;2023-03-12T00:45:43;49784.75;;;-144.14;100.00
7075;BME280;3578;51.568;6.932;2023-03-12T00:48:10;49820.81;;;-144.14;100.00
7075;BME280;3578;51.568;6.932;2023-03-12T00:50:37;49846.84;;;-144.14;100.00
7075;BME280;3578;51.568;6.932;2023-03-12T00:53:05;49848.84;;;-144.14;100.00
7075;BME280;3578;51.568;6.932;2023-03-12T00:55:33;49852.84;;;-144.14;100.00
7075;BME280;3578;51.568;6.932;2023-03-12T00:58:00;49834.81;;;-144.14;100.00
7075;BME280;3578;51.568;6.932;2023-03-12T01:00:27;49792.78;;;-144.14;100.00
7075;BME280;3578;51.568;6.932;2023-03-12T01:02:54;49808.78;;;-144.14;100.00
7075;BME280;3578;51.568;6.932;2023-03-12T01:05:22;49782.75;;;-144.14;100.00
7075;BME280;3578;51.568;6.932;2023-03-12T01:07:49;49792.78;;;-144.14;100.00
7075;BME280;3578;51.568;6.932;2023-03-12T01:10:18;49802.78;;;-144.14;100.00
7075;BME280;3578;51.568;6.932;2023-03-12T01:12:47;49772.75;;;-144.14;100.00
7075;BME280;3578;51.568;6.932;2023-03-12T01:15:16;49868.84;;;-144.14;100.00
7075;BME280;3578;51.568;6.932;2023-03-12T01:17:44;49832.81;;;-144.14;100.00
7075;BME280;3578;51.568;6.932;2023-03-12T01:20:11;49820.81;;;-144.14;100.00
7075;BME280;3578;51.568;6.932;2023-03-12T01:22:38;49806.78;;;-144.14;100.00
7075;BME280;3578;51.568;6.932;2023-03-12T01:25:06;49880.88;;;-144.14;100.00
7075;BME280;3578;51.568;6.932;2023-03-12T01:27:34;49924.91;;;-144.14;100.00
7075;BME280;3578;51.568;6.932;2023-03-12T01:30:04;49960.94;;;-144.14;100.00
7075;BME280;3578;51.568;6.932;2023-03-12T01:32:31;49988.97;;;-144.14;100.00
7075;BME280;3578;51.568;6.932;2023-03-12T01:34:58;49962.94;;;-144.14;100.00
7075;BME280;3578;51.568;6.932;2023-03-12T01:37:26;49982.97;;;-144.14;100.00
7075;BME280;3578;51.568;6.932;2023-03-12T01:39:53;49992.97;;;-144.14;100.00
7075;BME280;3578;51.568;6.932;2023-03-12T01:42:20;50015.00;;;-144.14;100.00
7075;BME280;3578;51.568;6.932;2023-03-12T01:44:53;49934.91;;;-144.14;100.00
7075;BME280;3578;51.568;6.932;2023-03-12T01:47:22;50009.00;;;-144.14;100.00
7075;BME280;3578;51.568;6.932;2023-03-12T01:49:52;50049.03;;;-144.14;100.00
7075;BME280;3578;51.568;6.932;2023-03-12T01:52:22;50127.13;;;-144.14;100.00
7075;BME280;3578;51.568;6.932;2023-03-12T01:54:55;50133.13;;;-144.14;99.96
7075;BME280;3578;51.568;6.932;2023-03-12T01:57:29;50129.13;;;-144.14;100.00
7075;BME280;3578;51.568;6.932;2023-03-12T02:00:00;50101.09;;;-144.14;100.00
7075;BME280;3578;51.568;6.932;2023-03-12T02:02:30;50109.13;;;-144.14;100.00
7075;BME280;3578;51.568;6.932;2023-03-12T02:05:05;50155.16;;;-144.14;100.00
7075;BME280;3578;51.568;6.932;2023-03-12T02:07:33;50153.16;;;-144.14;100.00
7075;BME280;3578;51.568;6.932;2023-03-12T02:10:02;50179.19;;;-144.14;100.00
7075;BME280;3578;51.568;6.932;2023-03-12T02:12:30;50213.22;;;-144.14;100.00
7075;BME280;3578;51.568;6.932;2023-03-12T02:14:57;50275.31;;;-144.14;99.43
7075;BME280;3578;51.568;6.932;2023-03-12T02:17:24;50319.34;;;-144.14;97.72
7075;BME280;3578;51.568;6.932;2023-03-12T02:20:00;50545.63;;;-144.14;95.92
7075;BME280;3578;51.568;6.932;2023-03-12T02:22:34;50597.69;;;-144.14;96.09
7075;BME280;3578;51.568;6.932;2023-03-12T02:25:17;50687.81;;;-144.14;94.37
7075;BME280;3578;51.568;6.932;2023-03-12T02:27:47;50637.75;;;-144.14;96.12
7075;BME280;3578;51.568;6.932;2023-03-12T02:30:15;50635.75;;;-144.14;96.47
7075;BME280;3578;51.568;6.932;2023-03-12T02:32:44;50581.66;;;-144.14;97.17
7075;BME280;3578;51.568;6.932;2023-03-12T02:35:13;50569.66;;;-144.14;97.51
7075;BME280;3578;51.568;6.932;2023-03-12T02:37:52;50545.63;;;-144.14;98.00
7075;BME280;3578;51.568;6.932;2023-03-12T02:40:25;50535.63;;;-144.14;98.77
7075;BME280;3578;51.568;6.932;2023-03-12T02:42:54;50449.50;;;-144.14;99.55
7075;BME280;3578;51.568;6.932;2023-03-12T02:45:23;50519.59;;;-144.14;98.98
7075;BME280;3578;51.568;6.932;2023-03-12T02:47:51;50479.53;;;-144.14;99.38
7075;BME280;3578;51.568;6.932;2023-03-12T02:50:18;50477.53;;;-144.14;99.19
7075;BME280;3578;51.568;6.932;2023-03-12T02:52:45;50443.50;;;-144.14;100.00
7075;BME280;3578;51.568;6.932;2023-03-12T02:55:12;50399.44;;;-144.14;100.00
7075;BME280;3578;51.568;6.932;2023-03-12T02:57:40;50349.38;;;-144.14;100.00
7075;BME280;3578;51.568;6.932;2023-03-12T03:00:12;50385.44;;;-144.14;100.00
7075;BME280;3578;51.568;6.932;2023-03-12T03:02:40;50449.50;;;-144.14;99.15
7075;BME280;3578;51.568;6.932;2023-03-12T03:05:09;50551.63;;;-144.14;97.83
7075;BME280;3578;51.568;6.932;2023-03-12T03:07:37;50557.66;;;-144.14;97.86
7075;BME280;3578;51.568;6.932;2023-03-12T03:10:06;50521.59;;;-144.14;98.95
7075;BME280;3578;51.568;6.932;2023-03-12T03:12:34;50457.53;;;-144.14;100.00
7075;BME280;3578;51.568;6.932;2023-03-12T03:15:05;50443.50;;;-144.14;100.00
7075;BME280;3578;51.568;6.932;2023-03-12T03:17:32;50481.53;;;-144.14;99.52
7075;BME280;3578;51.568;6.932;2023-03-12T03:19:59;50457.53;;;-144.14;99.49
7075;BME280;3578;51.568;6.932;2023-03-12T03:22:26;50537.63;;;-144.14;96.85
7075;BME280;3578;51.568;6.932;2023-03-12T03:24:53;50607.69;;;-144.14;97.83
7075;BME280;3578;51.568;6.932;2023-03-12T03:27:20;50559.66;;;-144.14;98.23
7075;BME280;3578;51.568;6.932;2023-03-12T03:29:47;50533.63;;;-144.14;99.15
7075;BME280;3578;51.568;6.932;2023-03-12T03:32:16;50429.47;;;-144.14;99.91
7075;BME280;3578;51.568;6.932;2023-03-12T03:34:43;50421.47;;;-144.14;100.00
7075;BME280;3578;51.568;6.932;2023-03-12T03:37:10;50377.41;;;-144.14;100.00
7075;BME280;3578;51.568;6.932;2023-03-12T03:39:37;50403.44;;;-144.14;100.00
7075;BME280;3578;51.568;6.932;2023-03-12T03:42:04;50369.41;;;-144.14;100.00
7075;BME280;3578;51.568;6.932;2023-03-12T03:44:31;50327.38;;;-144.14;100.00
7075;BME280;3578;51.568;6.932;2023-03-12T03:46:58;50453.50;;;-144.14;99.89
7075;BME280;3578;51.568;6.932;2023-03-12T03:49:26;50441.50;;;-144.14;99.48
7075;BME280;3578;51.568;6.932;2023-03-12T03:51:53;50437.50;;;-144.14;100.00
7075;BME280;3578;51.568;6.932;2023-03-12T03:54:20;50421.47;;;-144.14;100.00
7075;BME280;3578;51.568;6.932;2023-03-12T03:56:48;50373.41;;;-144.14;100.00
7075;BME280;3578;51.568;6.932;2023-03-12T03:59:15;50401.44;;;-144.14;100.00
7075;BME280;3578;51.568;6.932;2023-03-12T04:01:41;50365.41;;;-144.14;100.00
7075;BME280;3578;51.568;6.932;2023-03-12T04:04:08;50317.34;;;-144.14;100.00
7075;BME280;3578;51.568;6.932;2023-03-12T04:06:37;50249.28;;;-144.14;100.00
7075;BME280;3578;51.568;6.932;2023-03-12T04:09:04;50293.31;;;-144.14;100.00
7075;BME280;3578;51.568;6.932;2023-03-12T04:11:31;50351.38;;;-144.14;100.00
7075;BME280;3578;51.568;6.932;2023-03-12T04:13:58;50305.34;;;-144.14;100.00
7075;BME280;3578;51.568;6.932;2023-03-12T04:16:25;50313.34;;;-144.14;100.00
7075;BME280;3578;51.568;6.932;2023-03-12T04:18:52;50297.31;;;-144.14;100.00
7075;BME280;3578;51.568;6.932;2023-03-12T04:21:20;50313.34;;;-144.14;100.00
7075;BME280;3578;51.568;6.932;2023-03-12T04:23:48;50347.38;;;-144.14;100.00
7075;BME280;3578;51.568;6.932;2023-03-12T04:26:15;50375.41;;;-144.14;100.00
7075;BME280;3578;51.568;6.932;2023-03-12T04:28:42;50349.38;;;-144.14;100.00
7075;BME280;3578;51.568;6.932;2023-03-12T04:31:10;50411.47;;;-144.14;99.68
7075;BME280;3578;51.568;6.932;2023-03-12T04:33:39;50419.47;;;-144.14;99.42
7075;BME280;3578;51.568;6.932;2023-03-12T04:36:06;50429.47;;;-144.14;99.10
7075;BME280;3578;51.568;6.932;2023-03-12T04:38:33;50457.53;;;-144.14;99.18
7075;BME280;3578;51.568;6.932;2023-03-12T04:41:05;50473.53;;;-144.14;98.24
7075;BME280;3578;51.568;6.932;2023-03-12T04:43:32;50481.53;;;-144.14;99.07
7075;BME280;3578;51.568;6.932;2023-03-12T04:46:01;50429.47;;;-144.14;99.68
7075;BME280;3578;51.568;6.932;2023-03-12T04:48:28;50449.50;;;-144.14;99.77
7075;BME280;3578;51.568;6.932;2023-03-12T04:50:55;50475.53;;;-144.14;98.68
7075;BME280;3578;51.568;6.932;2023-03-12T04:53:23;50491.56;;;-144.14;98.79
7075;BME280;3578;51.568;6.932;2023-03-12T04:55:50;50501.56;;;-144.14;98.64
7075;BME280;3578;51.568;6.932;2023-03-12T04:58:19;50539.63;;;-144.14;97.84
7075;BME280;3578;51.568;6.932;2023-03-12T05:00:47;50563.66;;;-144.14;97.69
7075;BME280;3578;51.568;6.932;2023-03-12T05:03:14;50651.75;;;-144.14;96.36
7075;BME280;3578;51.568;6.932;2023-03-12T05:05:42;50713.84;;;-144.14;93.66
7075;BME280;3578;51.568;6.932;2023-03-12T05:08:09;50821.97;;;-144.14;93.31
7075;BME280;3578;51.568;6.932;2023-03-12T05:10:37;50785.94;;;-144.14;94.22
7075;BME280;3578;51.568;6.932;2023-03-12T05:13:04;50703.81;;;-144.14;95.75
7075;BME280;3578;51.568;6.932;2023-03-12T05:15:39;50757.91;;;-144.14;95.24
7075;BME280;3578;51.568;6.932;2023-03-12T05:18:06;50777.91;;;-144.14;94.37
7075;BME280;3578;51.568;6.932;2023-03-12T05:20:33;50821.97;;;-144.14;92.89
7075;BME280;3578;51.568;6.932;2023-03-12T05:23:00;50912.09;;;-144.14;90.35
7075;BME280;3578;51.568;6.932;2023-03-12T05:25:27;50998.22;;;-144.14;89.45
7075;BME280;3578;51.568;6.932;2023-03-12T05:27:54;51074.31;;;-144.14;87.84
7075;BME280;3578;51.568;6.932;2023-03-12T05:30:22;51128.41;;;-144.14;86.46
7075;BME280;3578;51.568;6.932;2023-03-12T05:32:50;51250.56;;;-144.14;84.43
7075;BME280;3578;51.568;6.932;2023-03-12T05:35:17;51254.59;;;-144.14;85.12
7075;BME280;3578;51.568;6.932;2023-03-12T05:37:44;51348.72;;;-144.14;83.25
7075;BME280;3578;51.568;6.932;2023-03-12T05:40:13;51422.84;;;-144.14;80.81
7075;BME280;3578;51.568;6.932;2023-03-12T05:42:40;51438.84;;;-144.14;81.39
7075;BME280;3578;51.568;6.932;2023-03-12T05:45:08;51412.81;;;-144.14;83.40
7075;BME280;3578;51.568;6.932;2023-03-12T05:47:35;51398.78;;;-144.14;85.90
7075;BME280;3578;51.568;6.932;2023-03-12T05:50:05;51428.84;;;-144.14;83.11
7075;BME280;3578;51.568;6.932;2023-03-12T05:52:32;51432.84;;;-144.14;83.95
7075;BME280;3578;51.568;6.932;2023-03-12T05:54:58;51454.88;;;-144.14;83.70
7075;BME280;3578;51.568;6.932;2023-03-12T05:57:25;51470.91;;;-144.14;82.40
7075;BME280;3578;51.568;6.932;2023-03-12T05:59:52;51498.94;;;-144.14;82.67
7075;BME280;3578;51.568;6.932;2023-03-12T06:02:19;51494.94;;;-144.14;83.16
7075;BME280;3578;51.568;6.932;2023-03-12T06:04:46;51490.94;;;-144.14;83.09
7075;BME280;3578;51.568;6.932;2023-03-12T06:07:15;51490.94;;;-144.14;83.67
7075;BME280;3578;51.568;6.932;2023-03-12T06:09:42;51478.91;;;-144.14;84.41
7075;BME280;3578;51.568;6.932;2023-03-12T06:12:09;51460.88;;;-144.14;83.48
7075;BME280;3578;51.568;6.932;2023-03-12T06:14:35;51486.94;;;-144.14;84.78
7075;BME280;3578;51.568;6.932;2023-03-12T06:17:02;51474.91;;;-144.14;85.66
7075;BME280;3578;51.568;6.932;2023-03-12T06:19:29;51442.88;;;-144.14;87.31
7075;BME280;3578;51.568;6.932;2023-03-12T06:21:57;51440.84;;;-144.14;86.28
7075;BME280;3578;51.568;6.932;2023-03-12T06:24:25;51450.88;;;-144.14;86.07
7075;BME280;3578;51.568;6.932;2023-03-12T06:26:53;51428.84;;;-144.14;86.05
7075;BME280;3578;51.568;6.932;2023-03-12T06:29:20;51426.84;;;-144.14;86.68
7075;BME280;3578;51.568;6.932;2023-03-12T06:31:47;51448.88;;;-144.14;86.43
7075;BME280;3578;51.568;6.932;2023-03-12T06:34:16;51464.91;;;-144.14;85.64
7075;BME280;3578;51.568;6.932;2023-03-12T06:36:43;51434.84;;;-144.14;86.40
7075;BME280;3578;51.568;6.932;2023-03-12T06:39:11;51464.91;;;-144.14;85.90
7075;BME280;3578;51.568;6.932;2023-03-12T06:41:39;51442.88;;;-144.14;86.73
7075;BME280;3578;51.568;6.932;2023-03-12T06:44:06;51460.88;;;-144.14;86.07
7075;BME280;3578;51.568;6.932;2023-03-12T06:46:33;51438.84;;;-144.14;85.98
7075;BME280;3578;51.568;6.932;2023-03-12T06:49:00;51436.84;;;-144.14;86.07
7075;BME280;3578;51.568;6.932;2023-03-12T06:51:27;51442.88;;;-144.14;86.64
7075;BME280;3578;51.568;6.932;2023-03-12T06:53:54;51440.84;;;-144.14;86.14
7075;BME280;3578;51.568;6.932;2023-03-12T06:56:21;51434.84;;;-144.14;87.83
7075;BME280;3578;51.568;6.932;2023-03-12T06:58:50;51458.88;;;-144.14;86.95
7075;BME280;3578;51.568;6.932;2023-03-12T07:01:16;51456.88;;;-144.14;86.56
7075;BME280;3578;51.568;6.932;2023-03-12T07:03:43;51434.84;;;-144.14;87.76
7075;BME280;3578;51.568;6.932;2023-03-12T07:06:15;51380.78;;;-144.14;90.33
7075;BME280;3578;51.568;6.932;2023-03-12T07:08:43;51426.84;;;-144.14;88.51
7075;BME280;3578;51.568;6.932;2023-03-12T07:11:11;51390.78;;;-144.14;89.01
7075;BME280;3578;51.568;6.932;2023-03-12T07:13:39;51396.78;;;-144.14;88.90
7075;BME280;3578;51.568;6.932;2023-03-12T07:16:08;51376.75;;;-144.14;90.53
7075;BME280;3578;51.568;6.932;2023-03-12T07:18:35;51356.72;;;-144.14;91.25
7075;BME280;3578;51.568;6.932;2023-03-12T07:21:02;51342.72;;;-144.14;92.27
7075;BME280;3578;51.568;6.932;2023-03-12T07:23:29;51312.66;;;-144.14;92.69
7075;BME280;3578;51.568;6.932;2023-03-12T07:25:56;51322.69;;;-144.14;93.39
7075;BME280;3578;51.568;6.932;2023-03-12T07:28:23;51294.63;;;-144.14;94.11
7075;BME280;3578;51.568;6.932;2023-03-12T07:30:50;51270.59;;;-144.14;94.96
7075;BME280;3578;51.568;6.932;2023-03-12T07:33:20;51224.53;;;-144.14;95.39
7075;BME280;3578;51.568;6.932;2023-03-12T07:35:47;51248.56;;;-144.14;96.19
7075;BME280;3578;51.568;6.932;2023-03-12T07:38:14;51170.47;;;-144.14;96.46
7075;BME280;3578;51.568;6.932;2023-03-12T07:40:41;51194.50;;;-144.14;96.67
7075;BME280;3578;51.568;6.932;2023-03-12T07:43:09;51156.44;;;-144.14;96.91
7075;BME280;3578;51.568;6.932;2023-03-12T07:45:37;51130.41;;;-144.14;96.94
7075;BME280;3578;51.568;6.932;2023-03-12T07:48:05;51134.41;;;-144.14;97.27
7075;BME280;3578;51.568;6.932;2023-03-12T07:50:34;51106.38;;;-144.14;97.35
7075;BME280;3578;51.568;6.932;2023-03-12T07:53:02;51106.38;;;-144.14;96.95
7075;BME280;3578;51.568;6.932;2023-03-12T07:55:29;51070.31;;;-144.14;97.03
7075;BME280;3578;51.568;6.932;2023-03-12T07:57:56;51098.34;;;-144.14;97.06
7075;BME280;3578;51.568;6.932;2023-03-12T08:00:24;51074.31;;;-144.14;97.42
7075;BME280;3578;51.568;6.932;2023-03-12T08:02:52;51078.34;;;-144.14;97.68
7075;BME280;3578;51.568;6.932;2023-03-12T08:05:19;51030.25;;;-144.14;97.99
7075;BME280;3578;51.568;6.932;2023-03-12T08:07:51;51068.31;;;-144.14;97.76
7075;BME280;3578;51.568;6.932;2023-03-12T08:10:19;51056.31;;;-144.14;97.30
7075;BME280;3578;51.568;6.932;2023-03-12T08:12:47;51054.28;;;-144.14;96.95
7075;BME280;3578;51.568;6.932;2023-03-12T08:15:14;51074.31;;;-144.14;96.50
7075;BME280;3578;51.568;6.932;2023-03-12T08:17:42;51076.31;;;-144.14;96.52
7075;BME280;3578;51.568;6.932;2023-03-12T08:20:10;51078.34;;;-144.14;96.73
7075;BME280;3578;51.568;6.932;2023-03-12T08:22:39;51056.31;;;-144.14;96.98
7075;BME280;3578;51.568;6.932;2023-03-12T08:25:09;50990.22;;;-144.14;96.52
7075;BME280;3578;51.568;6.932;2023-03-12T08:27:36;51054.28;;;-144.14;96.49
7075;BME280;3578;51.568;6.932;2023-03-12T08:30:05;51058.31;;;-144.14;97.03
7075;BME280;3578;51.568;6.932;2023-03-12T08:32:33;51062.31;;;-144.14;96.92
7075;BME280;3578;51.568;6.932;2023-03-12T08:34:59;51092.34;;;-144.14;96.91
7075;BME280;3578;51.568;6.932;2023-03-12T08:37:26;51004.22;;;-144.14;96.90
7075;BME280;3578;51.568;6.932;2023-03-12T08:39:53;51036.28;;;-144.14;97.21
7075;BME280;3578;51.568;6.932;2023-03-12T08:42:22;51050.28;;;-144.14;97.15
7075;BME280;3578;51.568;6.932;2023-03-12T08:44:49;51018.25;;;-144.14;97.11
7075;BME280;3578;51.568;6.932;2023-03-12T08:47:16;51030.25;;;-144.14;97.45
7075;BME280;3578;51.568;6.932;2023-03-12T08:49:43;51006.22;;;-144.14;97.29
7075;BME280;3578;51.568;6.932;2023-03-12T08:52:10;51010.25;;;-144.14;97.05
7075;BME280;3578;51.568;6.932;2023-03-12T08:54:37;51022.25;;;-144.14;96.68
7075;BME280;3578;51.568;6.932;2023-03-12T08:57:04;51048.28;;;-144.14;96.55
7075;BME280;3578;51.568;6.932;2023-03-12T08:59:33;51010.25;;;-144.14;96.81
7075;BME280;3578;51.568;6.932;2023-03-12T09:02:00;51014.25;;;-144.14;97.42
7075;BME280;3578;51.568;6.932;2023-03-12T09:04:27;50998.22;;;-144.14;97.61
7075;BME280;3578;51.568;6.932;2023-03-12T09:06:53;50986.19;;;-144.14;97.72
7075;BME280;3578;51.568;6.932;2023-03-12T09:09:20;50994.22;;;-144.14;97.60
7075;BME280;3578;51.568;6.932;2023-03-12T09:11:47;50992.22;;;-144.14;97.99
7075;BME280;3578;51.568;6.932;2023-03-12T09:14:14;50970.19;;;-144.14;98.60
7075;BME280;3578;51.568;6.932;2023-03-12T09:16:43;50950.16;;;-144.14;98.71
7075;BME280;3578;51.568;6.932;2023-03-12T09:19:10;50886.06;;;-144.14;100.00
7075;BME280;3578;51.568;6.932;2023-03-12T09:21:37;50840.00;;;-144.14;100.00
7075;BME280;3578;51.568;6.932;2023-03-12T09:24:05;50769.91;;;-144.14;100.00
7075;BME280;3578;51.568;6.932;2023-03-12T09:26:32;50679.78;;;-144.14;100.00
7075;BME280;3578;51.568;6.932;2023-03-12T09:28:59;50583.69;;;-144.14;100.00
7075;BME280;3578;51.568;6.932;2023-03-12T09:31:26;50453.50;;;-144.14;100.00
7075;BME280;3578;51.568;6.932;2023-03-12T09:33:54;50297.31;;;-144.14;100.00
7075;BME280;3578;51.568;6.932;2023-03-12T09:36:21;50285.31;;;-144.14;100.00
7075;BME280;3578;51.568;6.932;2023-03-12T09:38:48;50211.22;;;-144.14;100.00
7075;BME280;3578;51.568;6.932;2023-03-12T09:41:18;50145.16;;;-144.14;100.00
7075;BME280;3578;51.568;6.932;2023-03-12T09:43:51;50103.09;;;-144.14;100.00
7075;BME280;3578;51.568;6.932;2023-03-12T09:46:25;50065.06;;;-144.14;100.00
7075;BME280;3578;51.568;6.932;2023-03-12T09:48:56;50003.00;;;-144.14;100.00
7075;BME280;3578;51.568;6.932;2023-03-12T09:51:31;50031.03;;;-144.14;100.00
7075;BME280;3578;51.568;6.932;2023-03-12T09:54:04;50067.06;;;-144.14;100.00
7075;BME280;3578;51.568;6.932;2023-03-12T09:56:33;50137.16;;;-144.14;100.00
7075;BME280;3578;51.568;6.932;2023-03-12T09:59:00;50113.13;;;-144.14;100.00
7075;BME280;3578;51.568;6.932;2023-03-12T10:01:36;50129.13;;;-144.14;100.00
7075;BME280;3578;51.568;6.932;2023-03-12T10:04:47;50159.16;;;-144.14;100.00
7075;BME280;3578;51.568;6.932;2023-03-12T10:07:24;50203.22;;;-144.14;100.00
7075;BME280;3578;51.568;6.932;2023-03-12T10:10:25;50231.25;;;-144.14;100.00
7075;BME280;3578;51.568;6.932;2023-03-12T10:13:14;50199.22;;;-144.14;100.00
7075;BME280;3578;51.568;6.932;2023-03-12T10:15:55;50215.22;;;-144.14;100.00
7075;BME280;3578;51.568;6.932;2023-03-12T10:18:41;50247.28;;;-144.14;100.00
7075;BME280;3578;51.568;6.932;2023-03-12T10:21:23;50181.19;;;-144.14;100.00
7075;BME280;3578;51.568;6.932;2023-03-12T10:24:14;50125.13;;;-144.14;100.00
7075;BME280;3578;51.568;6.932;2023-03-12T10:26:49;50077.06;;;-144.14;100.00
7075;BME280;3578;51.568;6.932;2023-03-12T10:29:19;50009.00;;;-144.14;100.00
7075;BME280;3578;51.568;6.932;2023-03-12T10:31:52;50071.06;;;-144.14;100.00
7075;BME280;3578;51.568;6.932;2023-03-12T10:34:28;50085.09;;;-144.14;100.00
7075;BME280;3578;51.568;6.932;2023-03-12T10:37:04;50105.09;;;-144.14;100.00
7075;BME280;3578;51.568;6.932;2023-03-12T10:39:32;50121.13;;;-144.14;100.00
7075;BME280;3578;51.568;6.932;2023-03-12T10:41:59;50151.16;;;-144.14;100.00
7075;BME280;3578;51.568;6.932;2023-03-12T10:44:27;50141.16;;;-144.14;100.00
7075;BME280;3578;51.568;6.932;2023-03-12T10:47:09;50129.13;;;-144.14;100.00
7075;BME280;3578;51.568;6.932;2023-03-12T10:49:42;50173.19;;;-144.14;100.00
7075;BME280;3578;51.568;6.932;2023-03-12T10:52:17;50173.19;;;-144.14;100.00
7075;BME280;3578;51.568;6.932;2023-03-12T10:54:47;50165.19;;;-144.14;100.00
7075;BME280;3578;51.568;6.932;2023-03-12T10:57:15;50109.13;;;-144.14;100.00
7075;BME280;3578;51.568;6.932;2023-03-12T10:59:44;50163.16;;;-144.14;100.00
7075;BME280;3578;51.568;6.932;2023-03-12T11:02:40;50193.22;;;-144.14;100.00
7075;BME280;3578;51.568;6.932;2023-03-12T11:05:20;50133.13;;;-144.14;100.00
7075;BME280;3578;51.568;6.932;2023-03-12T11:07:50;50137.16;;;-144.14;100.00
7075;BME280;3578;51.568;6.932;2023-03-12T11:10:22;50137.16;;;-144.14;100.00
7075;BME280;3578;51.568;6.932;2023-03-12T11:13:01;50133.13;;;-144.14;100.00
7075;BME280;3578;51.568;6.932;2023-03-12T11:15:37;50137.16;;;-144.14;100.00
7075;BME280;3578;51.568;6.932;2023-03-12T11:18:33;50127.13;;;-144.14;100.00
7075;BME280;3578;51.568;6.932;2023-03-12T11:21:18;50121.13;;;-144.14;100.00
7075;BME280;3578;51.568;6.932;2023-03-12T11:24:07;50135.13;;;-144.14;100.00
7075;BME280;3578;51.568;6.932;2023-03-12T11:26:43;50093.09;;;-144.14;100.00
7075;BME280;3578;51.568;6.932;2023-03-12T11:29:23;50077.06;;;-144.14;100.00
7075;BME280;3578;51.568;6.932;2023-03-12T11:31:59;50065.06;;;-144.14;100.00
7075;BME280;3578;51.568;6.932;2023-03-12T11:34:30;50061.06;;;-144.14;100.00
7075;BME280;3578;51.568;6.932;2023-03-12T11:37:06;50085.09;;;-144.14;100.00
7075;BME280;3578;51.568;6.932;2023-03-12T11:39:50;50053.06;;;-144.14;100.00
7075;BME280;3578;51.568;6.932;2023-03-12T11:42:35;50073.06;;;-144.14;100.00
7075;BME280;3578;51.568;6.932;2023-03-12T11:45:13;50017.00;;;-144.14;100.00
7075;BME280;3578;51.568;6.932;2023-03-12T11:47:54;50061.06;;;-144.14;100.00
7075;BME280;3578;51.568;6.932;2023-03-12T11:50:32;50049.03;;;-144.14;100.00
7075;BME280;3578;51.568;6.932;2023-03-12T11:53:21;50059.06;;;-144.14;100.00
7075;BME280;3578;51.568;6.932;2023-03-12T11:56:02;50089.09;;;-144.14;100.00
7075;BME280;3578;51.568;6.932;2023-03-12T11:58:48;50109.13;;;-144.14;100.00
7075;BME280;3578;51.568;6.932;2023-03-12T12:01:28;50141.16;;;-144.14;100.00
7075;BME280;3578;51.568;6.932;2023-03-12T12:04:36;50151.16;;;-144.14;100.00
7075;BME280;3578;51.568;6.932;2023-03-12T12:07:15;50249.28;;;-144.14;100.00
7075;BME280;3578;51.568;6.932;2023-03-12T12:09:51;50249.28;;;-144.14;100.00
7075;BME280;3578;51.568;6.932;2023-03-12T12:12:48;50229.25;;;-144.14;100.00
7075;BME280;3578;51.568;6.932;2023-03-12T12:15:27;50245.25;;;-144.14;100.00
7075;BME280;3578;51.568;6.932;2023-03-12T12:18:04;50265.28;;;-144.14;100.00
7075;BME280;3578;51.568;6.932;2023-03-12T12:20:44;50257.28;;;-144.14;100.00
7075;BME280;3578;51.568;6.932;2023-03-12T12:23:17;50239.25;;;-144.14;100.00
7075;BME280;3578;51.568;6.932;2023-03-12T12:26:02;50273.31;;;-144.14;100.00
7075;BME280;3578;51.568;6.932;2023-03-12T12:31:54;50313.34;;;-144.14;100.00
7075;BME280;3578;51.568;6.932;2023-03-12T12:34:52;50309.34;;;-144.14;100.00
7075;BME280;3578;51.568;6.932;2023-03-12T12:37:47;50345.38;;;-144.14;100.00
7075;BME280;3578;51.568;6.932;2023-03-12T12:40:20;50369.41;;;-144.14;100.00
7075;BME280;3578;51.568;6.932;2023-03-12T12:43:03;50369.41;;;-144.14;100.00
7075;BME280;3578;51.568;6.932;2023-03-12T12:45:36;50351.38;;;-144.14;100.00
7075;BME280;3578;51.568;6.932;2023-03-12T12:48:10;50333.38;;;-144.14;100.00
7075;BME280;3578;51.568;6.932;2023-03-12T12:50:38;50309.34;;;-144.14;100.00
7075;BME280;3578;51.568;6.932;2023-03-12T12:53:14;50269.28;;;-144.14;100.00
7075;BME280;3578;51.568;6.932;2023-03-12T12:55:54;50295.31;;;-144.14;100.00
7075;BME280;3578;51.568;6.932;2023-03-12T12:58:53;50269.28;;;-144.14;100.00
7075;BME280;3578;51.568;6.932;2023-03-12T13:01:25;50273.31;;;-144.14;100.00
7075;BME280;3578;51.568;6.932;2023-03-12T13:04:02;50301.34;;;-144.14;100.00
7075;BME280;3578;51.568;6.932;2023-03-12T13:07:00;50285.31;;;-144.14;100.00
7075;BME280;3578;51.568;6.932;2023-03-12T13:09:40;50267.28;;;-144.14;100.00
7075;BME280;3578;51.568;6.932;2023-03-12T13:12:19;50281.31;;;-144.14;100.00
7075;BME280;3578;51.568;6.932;2023-03-12T13:14:48;50307.34;;;-144.14;100.00
7075;BME280;3578;51.568;6.932;2023-03-12T13:17:34;50305.34;;;-144.14;100.00